sensor_id;sensor_type;location;lat;lon;timestamp;temperature;humidity
9668;DHT22;4872;48.316;10.650;2023-12-22T04:51:59;6.20;99.90
9668;DHT22;4872;48.316;10.650;2023-12-22T04:54:26;6.20;99.90
9668;DHT22;4872;48.316;10.650;2023-12-22T04:56:53;6.20;99.90
9668;DHT22;4872;48.316;10.650;2023-12-22T04:59:20;6.30;99.90
9668;DHT22;4872;48.316;10.650;2023-12-22T05:01:46;6.20;99.90
9668;DHT22;4872;48.316;10.650;2023-12-22T05:04:13;6.30;99.90
9668;DHT22;4872;48.316;10.650;2023-12-22T05:06:40;6.20;99.90
9668;DHT22;4872;48.316;10.650;2023-12-22T05:09:08;6.20;99.90
9668;DHT22;4872;48.316;10.650;2023-12-22T05:11:35;6.10;99.90
9668;DHT22;4872;48.316;10.650;2023-12-22T05:14:01;5.90;99.90
9668;DHT22;4872;48.316;10.650;2023-12-22T05:16:28;5.70;99.90
9668;DHT22;4872;48.316;10.650;2023-12-22T05:18:56;5.60;99.90
9668;DHT22;4872;48.316;10.650;2023-12-22T05:21:23;5.70;99.90
9668;DHT22;4872;48.316;10.650;2023-12-22T05:23:50;5.40;99.90
9668;DHT22;4872;48.316;10.650;2023-12-22T05:26:19;5.30;99.90
9668;DHT22;4872;48.316;10.650;2023-12-22T05:28:46;5.30;99.90
9668;DHT22;4872;48.316;10.650;2023-12-22T05:31:15;5.30;99.90
9668;DHT22;4872;48.316;10.650;2023-12-22T05:34:08;5.30;99.90
9668;DHT22;4872;48.316;10.650;2023-12-22T05:36:35;5.30;99.90
9668;DHT22;4872;48.316;10.650;2023-12-22T05:39:03;5.40;99.90
9668;DHT22;4872;48.316;10.650;2023-12-22T05:41:33;5.40;99.90
9668;DHT22;4872;48.316;10.650;2023-12-22T05:44:01;5.50;99.90
9668;DHT22;4872;48.316;10.650;2023-12-22T05:46:28;5.50;99.90
9668;DHT22;4872;48.316;10.650;2023-12-22T05:48:55;5.60;99.90
9668;DHT22;4872;48.316;10.650;2023-12-22T05:51:24;5.60;99.90
9668;DHT22;4872;48.316;10.650;2023-12-22T05:53:51;5.70;99.90
9668;DHT22;4872;48.316;10.650;2023-12-22T05:56:20;5.80;99.90
9668;DHT22;4872;48.316;10.650;2023-12-22T05:58:49;5.70;99.90
9668;DHT22;4872;48.316;10.650;2023-12-22T06:01:16;5.80;99.90
9668;DHT22;4872;48.316;10.650;2023-12-22T06:03:43;6.00;99.90
9668;DHT22;4872;48.316;10.650;2023-12-22T06:06:10;5.80;99.90
9668;DHT22;4872;48.316;10.650;2023-12-22T06:08:37;5.80;99.90
9668;DHT22;4872;48.316;10.650;2023-12-22T06:11:04;5.90;99.90
9668;DHT22;4872;48.316;10.650;2023-12-22T06:13:31;5.90;99.90
9668;DHT22;4872;48.316;10.650;2023-12-22T06:15:59;6.10;99.90
9668;DHT22;4872;48.316;10.650;2023-12-22T06:18:26;5.90;99.90
9668;DHT22;4872;48.316;10.650;2023-12-22T06:20:52;5.90;99.90
9668;DHT22;4872;48.316;10.650;2023-12-22T06:23:19;6.00;99.90
9668;DHT22;4872;48.316;10.650;2023-12-22T06:25:46;6.00;99.90
9668;DHT22;4872;48.316;10.650;2023-12-22T06:28:13;5.90;99.90
9668;DHT22;4872;48.316;10.650;2023-12-22T06:30:42;5.90;99.90
9668;DHT22;4872;48.316;10.650;2023-12-22T06:33:11;5.90;99.90
9668;DHT22;4872;48.316;10.650;2023-12-22T06:35:37;6.00;99.90
9668;DHT22;4872;48.316;10.650;2023-12-22T06:38:06;6.00;99.90
9668;DHT22;4872;48.316;10.650;2023-12-22T06:40:34;6.00;99.90
9668;DHT22;4872;48.316;10.650;2023-12-22T06:43:01;6.00;99.90
9668;DHT22;4872;48.316;10.650;2023-12-22T06:45:28;6.10;99.90
9668;DHT22;4872;48.316;10.650;2023-12-22T06:47:55;6.10;99.90
9668;DHT22;4872;48.316;10.650;2023-12-22T06:50:23;6.10;99.90
9668;DHT22;4872;48.316;10.650;2023-12-22T06:52:50;6.00;99.90
9668;DHT22;4872;48.316;10.650;2023-12-22T06:55:17;6.00;99.90
9668;DHT22;4872;48.316;10.650;2023-12-22T06:57:43;6.00;99.90
9668;DHT22;4872;48.316;10.650;2023-12-22T07:00:11;6.00;99.90
9668;DHT22;4872;48.316;10.650;2023-12-22T07:02:38;5.90;99.90
9668;DHT22;4872;48.316;10.650;2023-12-22T07:05:31;6.00;99.90
9668;DHT22;4872;48.316;10.650;2023-12-22T07:07:58;5.80;99.90
9668;DHT22;4872;48.316;10.650;2023-12-22T07:10:26;5.80;99.90
9668;DHT22;4872;48.316;10.650;2023-12-22T07:12:52;5.70;99.90
9668;DHT22;4872;48.316;10.650;2023-12-22T07:15:19;5.80;99.90
9668;DHT22;4872;48.316;10.650;2023-12-22T07:17:46;5.80;99.90
9668;DHT22;4872;48.316;10.650;2023-12-22T07:20:13;5.70;99.90
9668;DHT22;4872;48.316;10.650;2023-12-22T07:22:44;5.80;99.90
9668;DHT22;4872;48.316;10.650;2023-12-22T07:25:11;5.80;99.90
9668;DHT22;4872;48.316;10.650;2023-12-22T07:27:38;5.90;99.90
9668;DHT22;4872;48.316;10.650;2023-12-22T07:30:05;5.80;99.90
9668;DHT22;4872;48.316;10.650;2023-12-22T07:32:32;5.80;99.90
9668;DHT22;4872;48.316;10.650;2023-12-22T07:34:59;5.80;99.90
9668;DHT22;4872;48.316;10.650;2023-12-22T07:37:26;5.80;99.90
9668;DHT22;4872;48.316;10.650;2023-12-22T07:39:54;5.90;99.90
9668;DHT22;4872;48.316;10.650;2023-12-22T07:42:21;5.80;99.90
9668;DHT22;4872;48.316;10.650;2023-12-22T07:44:47;5.80;99.90
9668;DHT22;4872;48.316;10.650;2023-12-22T07:47:14;6.00;99.90
9668;DHT22;4872;48.316;10.650;2023-12-22T07:49:41;5.90;99.90
9668;DHT22;4872;48.316;10.650;2023-12-22T07:52:08;5.90;99.90
9668;DHT22;4872;48.316;10.650;2023-12-22T07:54:36;5.90;99.90
9668;DHT22;4872;48.316;10.650;2023-12-22T07:57:04;5.90;99.90
9668;DHT22;4872;48.316;10.650;2023-12-22T07:59:31;6.00;99.90
9668;DHT22;4872;48.316;10.650;2023-12-22T08:01:58;5.80;99.90
9668;DHT22;4872;48.316;10.650;2023-12-22T08:04:25;6.00;99.90
9668;DHT22;4872;48.316;10.650;2023-12-22T08:06:52;5.80;99.90
9668;DHT22;4872;48.316;10.650;2023-12-22T08:09:33;5.70;99.90
9668;DHT22;4872;48.316;10.650;2023-12-22T08:12:00;5.70;99.90
9668;DHT22;4872;48.316;10.650;2023-12-22T08:14:28;5.60;99.90
9668;DHT22;4872;48.316;10.650;2023-12-22T08:16:55;5.60;99.90
9668;DHT22;4872;48.316;10.650;2023-12-22T08:19:22;5.60;99.90
9668;DHT22;4872;48.316;10.650;2023-12-22T08:21:48;5.50;99.90
9668;DHT22;4872;48.316;10.650;2023-12-22T08:24:15;5.50;99.90
9668;DHT22;4872;48.316;10.650;2023-12-22T08:26:55;5.60;99.90
9668;DHT22;4872;48.316;10.650;2023-12-22T08:29:39;5.50;99.90
9668;DHT22;4872;48.316;10.650;2023-12-22T08:32:06;5.50;99.90
9668;DHT22;4872;48.316;10.650;2023-12-22T08:34:33;5.50;99.90
9668;DHT22;4872;48.316;10.650;2023-12-22T08:37:00;5.50;99.90
9668;DHT22;4872;48.316;10.650;2023-12-22T08:39:27;5.50;99.90
9668;DHT22;4872;48.316;10.650;2023-12-22T08:41:54;5.50;99.90
9668;DHT22;4872;48.316;10.650;2023-12-22T08:44:21;5.60;99.90
9668;DHT22;4872;48.316;10.650;2023-12-22T08:46:49;5.60;99.90
9668;DHT22;4872;48.316;10.650;2023-12-22T08:49:16;5.60;99.90
9668;DHT22;4872;48.316;10.650;2023-12-22T08:51:43;5.60;99.90
9668;DHT22;4872;48.316;10.650;2023-12-22T08:54:10;5.70;99.90
9668;DHT22;4872;48.316;10.650;2023-12-22T08:56:36;5.70;99.90
9668;DHT22;4872;48.316;10.650;2023-12-22T08:59:03;5.70;99.90
9668;DHT22;4872;48.316;10.650;2023-12-22T09:01:30;5.70;99.90
9668;DHT22;4872;48.316;10.650;2023-12-22T09:03:58;5.70;99.90
9668;DHT22;4872;48.316;10.650;2023-12-22T09:06:25;5.70;99.90
9668;DHT22;4872;48.316;10.650;2023-12-22T09:08:52;5.70;99.90
9668;DHT22;4872;48.316;10.650;2023-12-22T09:11:20;5.70;99.90
9668;DHT22;4872;48.316;10.650;2023-12-22T09:13:46;5.70;99.90
9668;DHT22;4872;48.316;10.650;2023-12-22T09:16:13;5.60;99.90
9668;DHT22;4872;48.316;10.650;2023-12-22T09:18:41;5.50;99.90
9668;DHT22;4872;48.316;10.650;2023-12-22T09:21:09;5.30;99.90
9668;DHT22;4872;48.316;10.650;2023-12-22T09:23:36;5.10;99.90
9668;DHT22;4872;48.316;10.650;2023-12-22T09:26:21;5.00;99.90
9668;DHT22;4872;48.316;10.650;2023-12-22T09:28:48;4.80;99.90
9668;DHT22;4872;48.316;10.650;2023-12-22T09:31:15;4.80;99.90
9668;DHT22;4872;48.316;10.650;2023-12-22T09:33:42;4.70;99.90
9668;DHT22;4872;48.316;10.650;2023-12-22T09:36:10;4.80;99.90
9668;DHT22;4872;48.316;10.650;2023-12-22T09:38:37;4.70;99.90
9668;DHT22;4872;48.316;10.650;2023-12-22T09:41:04;4.70;99.90
9668;DHT22;4872;48.316;10.650;2023-12-22T09:43:34;4.70;99.90
9668;DHT22;4872;48.316;10.650;2023-12-22T09:46:02;4.70;99.90
9668;DHT22;4872;48.316;10.650;2023-12-22T09:48:30;4.70;99.90
9668;DHT22;4872;48.316;10.650;2023-12-22T09:50:59;4.80;99.90
9668;DHT22;4872;48.316;10.650;2023-12-22T09:53:28;4.80;99.90
9668;DHT22;4872;48.316;10.650;2023-12-22T09:55:58;5.00;99.90
9668;DHT22;4872;48.316;10.650;2023-12-22T09:58:29;4.90;99.90
9668;DHT22;4872;48.316;10.650;2023-12-22T10:00:56;4.80;99.90
9668;DHT22;4872;48.316;10.650;2023-12-22T10:03:24;4.80;99.90
9668;DHT22;4872;48.316;10.650;2023-12-22T10:05:52;4.90;99.90
9668;DHT22;4872;48.316;10.650;2023-12-22T10:08:19;4.90;99.90
9668;DHT22;4872;48.316;10.650;2023-12-22T10:10:48;5.00;99.90
9668;DHT22;4872;48.316;10.650;2023-12-22T10:13:18;5.00;99.90
9668;DHT22;4872;48.316;10.650;2023-12-22T10:15:45;5.10;99.90
9668;DHT22;4872;48.316;10.650;2023-12-22T10:18:35;5.10;99.90
9668;DHT22;4872;48.316;10.650;2023-12-22T10:21:01;5.20;99.90
9668;DHT22;4872;48.316;10.650;2023-12-22T10:23:28;5.20;99.90
9668;DHT22;4872;48.316;10.650;2023-12-22T10:25:58;5.30;99.90
9668;DHT22;4872;48.316;10.650;2023-12-22T10:28:27;5.30;99.90
9668;DHT22;4872;48.316;10.650;2023-12-22T10:30:54;5.40;99.90
9668;DHT22;4872;48.316;10.650;2023-12-22T10:33:24;5.40;99.90
9668;DHT22;4872;48.316;10.650;2023-12-22T10:38:32;5.50;99.90
9668;DHT22;4872;48.316;10.650;2023-12-22T10:41:02;5.60;99.90
9668;DHT22;4872;48.316;10.650;2023-12-22T10:43:29;5.60;99.90
9668;DHT22;4872;48.316;10.650;2023-12-22T10:45:55;5.60;99.90
9668;DHT22;4872;48.316;10.650;2023-12-22T10:48:22;5.60;99.90
9668;DHT22;4872;48.316;10.650;2023-12-22T10:50:49;5.70;99.90
9668;DHT22;4872;48.316;10.650;2023-12-22T10:53:16;5.70;99.90
9668;DHT22;4872;48.316;10.650;2023-12-22T10:55:49;5.70;99.90
9668;DHT22;4872;48.316;10.650;2023-12-22T10:58:18;5.70;99.90
9668;DHT22;4872;48.316;10.650;2023-12-22T11:01:02;5.70;99.90
9668;DHT22;4872;48.316;10.650;2023-12-22T11:04:09;5.80;99.90
9668;DHT22;4872;48.316;10.650;2023-12-22T11:06:41;5.70;99.90
9668;DHT22;4872;48.316;10.650;2023-12-22T11:09:10;5.60;99.90
9668;DHT22;4872;48.316;10.650;2023-12-22T11:11:38;5.80;99.90
9668;DHT22;4872;48.316;10.650;2023-12-22T11:14:07;5.80;99.90
9668;DHT22;4872;48.316;10.650;2023-12-22T11:16:36;5.80;99.90
9668;DHT22;4872;48.316;10.650;2023-12-22T11:19:03;5.80;99.90
9668;DHT22;4872;48.316;10.650;2023-12-22T11:21:31;5.80;99.90
9668;DHT22;4872;48.316;10.650;2023-12-22T11:23:57;5.70;99.90
9668;DHT22;4872;48.316;10.650;2023-12-22T11:26:25;5.80;99.90
9668;DHT22;4872;48.316;10.650;2023-12-22T11:28:52;5.70;99.90
9668;DHT22;4872;48.316;10.650;2023-12-22T11:31:20;5.80;99.90
9668;DHT22;4872;48.316;10.650;2023-12-22T11:33:49;5.80;99.90
9668;DHT22;4872;48.316;10.650;2023-12-22T11:36:17;5.80;99.90
9668;DHT22;4872;48.316;10.650;2023-12-22T11:38:45;5.80;99.90
9668;DHT22;4872;48.316;10.650;2023-12-22T11:41:16;5.80;99.90
9668;DHT22;4872;48.316;10.650;2023-12-22T11:43:44;5.90;99.90
9668;DHT22;4872;48.316;10.650;2023-12-22T11:46:11;5.80;99.90
9668;DHT22;4872;48.316;10.650;2023-12-22T11:48:46;5.90;99.90
9668;DHT22;4872;48.316;10.650;2023-12-22T11:51:14;5.90;99.90
9668;DHT22;4872;48.316;10.650;2023-12-22T11:53:40;5.90;99.90
9668;DHT22;4872;48.316;10.650;2023-12-22T11:56:08;6.10;99.90
9668;DHT22;4872;48.316;10.650;2023-12-22T11:58:37;5.90;99.90
9668;DHT22;4872;48.316;10.650;2023-12-22T12:01:06;6.00;99.90
9668;DHT22;4872;48.316;10.650;2023-12-22T12:03:36;5.90;99.90
9668;DHT22;4872;48.316;10.650;2023-12-22T12:06:22;5.90;99.90
9668;DHT22;4872;48.316;10.650;2023-12-22T12:08:57;5.90;99.90
9668;DHT22;4872;48.316;10.650;2023-12-22T12:14:32;5.90;99.90
9668;DHT22;4872;48.316;10.650;2023-12-22T12:17:05;5.90;99.90
9668;DHT22;4872;48.316;10.650;2023-12-22T12:19:34;6.00;99.90
9668;DHT22;4872;48.316;10.650;2023-12-22T12:22:02;6.00;99.90
9668;DHT22;4872;48.316;10.650;2023-12-22T12:24:29;6.00;99.90
9668;DHT22;4872;48.316;10.650;2023-12-22T12:26:56;5.90;99.90
9668;DHT22;4872;48.316;10.650;2023-12-22T12:29:23;5.90;99.90
9668;DHT22;4872;48.316;10.650;2023-12-22T12:31:50;5.90;99.90
9668;DHT22;4872;48.316;10.650;2023-12-22T12:34:17;5.80;99.90
9668;DHT22;4872;48.316;10.650;2023-12-22T12:36:46;5.80;99.90
9668;DHT22;4872;48.316;10.650;2023-12-22T12:39:16;5.80;99.90
9668;DHT22;4872;48.316;10.650;2023-12-22T12:41:48;5.70;99.90
9668;DHT22;4872;48.316;10.650;2023-12-22T12:44:20;5.70;99.90
9668;DHT22;4872;48.316;10.650;2023-12-22T12:46:48;5.70;99.90
9668;DHT22;4872;48.316;10.650;2023-12-22T12:49:15;5.70;99.90
9668;DHT22;4872;48.316;10.650;2023-12-22T12:51:43;5.60;99.90
9668;DHT22;4872;48.316;10.650;2023-12-22T12:54:11;5.70;99.90
9668;DHT22;4872;48.316;10.650;2023-12-22T12:56:40;5.70;99.90
9668;DHT22;4872;48.316;10.650;2023-12-22T12:59:08;5.80;99.90
9668;DHT22;4872;48.316;10.650;2023-12-22T13:01:38;5.70;99.90
9668;DHT22;4872;48.316;10.650;2023-12-22T13:04:05;5.70;99.90
9668;DHT22;4872;48.316;10.650;2023-12-22T13:06:32;5.80;99.90
9668;DHT22;4872;48.316;10.650;2023-12-22T13:08:59;5.70;99.90
9668;DHT22;4872;48.316;10.650;2023-12-22T13:11:28;5.70;99.90
9668;DHT22;4872;48.316;10.650;2023-12-22T13:13:57;5.70;99.90
9668;DHT22;4872;48.316;10.650;2023-12-22T13:16:25;5.90;99.90
9668;DHT22;4872;48.316;10.650;2023-12-22T13:18:55;5.80;99.90
9668;DHT22;4872;48.316;10.650;2023-12-22T13:21:23;6.00;99.90
9668;DHT22;4872;48.316;10.650;2023-12-22T13:24:08;5.80;99.90
9668;DHT22;4872;48.316;10.650;2023-12-22T13:26:34;5.80;99.90
9668;DHT22;4872;48.316;10.650;2023-12-22T13:29:02;5.80;99.90
9668;DHT22;4872;48.316;10.650;2023-12-22T13:31:30;5.80;99.90
9668;DHT22;4872;48.316;10.650;2023-12-22T13:33:58;5.80;99.90
9668;DHT22;4872;48.316;10.650;2023-12-22T13:36:25;5.80;99.90
9668;DHT22;4872;48.316;10.650;2023-12-22T13:38:52;5.80;99.90
9668;DHT22;4872;48.316;10.650;2023-12-22T13:41:19;5.80;99.90
9668;DHT22;4872;48.316;10.650;2023-12-22T13:43:46;5.90;99.90
9668;DHT22;4872;48.316;10.650;2023-12-22T13:46:14;5.90;99.90
9668;DHT22;4872;48.316;10.650;2023-12-22T13:48:41;6.00;99.90
9668;DHT22;4872;48.316;10.650;2023-12-22T13:51:08;6.00;99.90
9668;DHT22;4872;48.316;10.650;2023-12-22T13:53:35;6.00;99.90
9668;DHT22;4872;48.316;10.650;2023-12-22T13:56:12;6.10;99.90
9668;DHT22;4872;48.316;10.650;2023-12-22T13:58:43;6.10;99.90
9668;DHT22;4872;48.316;10.650;2023-12-22T14:01:15;6.30;99.90
9668;DHT22;4872;48.316;10.650;2023-12-22T14:03:43;6.20;99.90
9668;DHT22;4872;48.316;10.650;2023-12-22T14:06:11;6.20;99.90
9668;DHT22;4872;48.316;10.650;2023-12-22T14:08:39;6.20;99.90
9668;DHT22;4872;48.316;10.650;2023-12-22T14:11:07;6.30;99.90
9668;DHT22;4872;48.316;10.650;2023-12-22T14:13:33;6.30;99.90
9668;DHT22;4872;48.316;10.650;2023-12-22T14:16:05;6.40;99.90
9668;DHT22;4872;48.316;10.650;2023-12-22T14:18:33;6.40;99.90
9668;DHT22;4872;48.316;10.650;2023-12-22T14:21:00;6.40;99.90
9668;DHT22;4872;48.316;10.650;2023-12-22T14:23:27;6.40;99.90
9668;DHT22;4872;48.316;10.650;2023-12-22T14:25:53;6.40;99.90
9668;DHT22;4872;48.316;10.650;2023-12-22T14:28:20;6.50;99.90
9668;DHT22;4872;48.316;10.650;2023-12-22T14:30:47;6.50;99.90
9668;DHT22;4872;48.316;10.650;2023-12-22T14:33:14;6.50;99.90
9668;DHT22;4872;48.316;10.650;2023-12-22T14:35:43;6.50;99.90
9668;DHT22;4872;48.316;10.650;2023-12-22T14:38:09;6.50;99.90
9668;DHT22;4872;48.316;10.650;2023-12-22T14:40:36;6.60;99.90
9668;DHT22;4872;48.316;10.650;2023-12-22T14:43:03;6.60;99.90
9668;DHT22;4872;48.316;10.650;2023-12-22T14:45:30;6.60;99.90
9668;DHT22;4872;48.316;10.650;2023-12-22T14:47:56;6.60;99.90
9668;DHT22;4872;48.316;10.650;2023-12-22T14:50:23;6.60;99.90
9668;DHT22;4872;48.316;10.650;2023-12-22T14:52:51;6.50;99.90
9668;DHT22;4872;48.316;10.650;2023-12-22T14:55:18;6.70;99.90
9668;DHT22;4872;48.316;10.650;2023-12-22T14:57:45;6.60;99.90
9668;DHT22;4872;48.316;10.650;2023-12-22T15:00:13;6.60;99.90
9668;DHT22;4872;48.316;10.650;2023-12-22T15:02:40;6.60;99.90
9668;DHT22;4872;48.316;10.650;2023-12-22T15:05:07;6.60;99.90
9668;DHT22;4872;48.316;10.650;2023-12-22T15:07:34;6.60;99.90
9668;DHT22;4872;48.316;10.650;2023-12-22T15:10:03;6.60;99.90
9668;DHT22;4872;48.316;10.650;2023-12-22T15:12:31;6.70;99.90
9668;DHT22;4872;48.316;10.650;2023-12-22T15:15:01;6.70;99.90
9668;DHT22;4872;48.316;10.650;2023-12-22T15:17:29;6.70;99.90
9668;DHT22;4872;48.316;10.650;2023-12-22T15:19:56;6.80;99.90
9668;DHT22;4872;48.316;10.650;2023-12-22T15:22:23;6.80;99.90
9668;DHT22;4872;48.316;10.650;2023-12-22T15:24:49;6.70;99.90
9668;DHT22;4872;48.316;10.650;2023-12-22T15:27:18;6.80;99.90
9668;DHT22;4872;48.316;10.650;2023-12-22T15:29:45;6.80;99.90
9668;DHT22;4872;48.316;10.650;2023-12-22T15:32:13;6.70;99.90
9668;DHT22;4872;48.316;10.650;2023-12-22T15:34:41;6.90;99.90
9668;DHT22;4872;48.316;10.650;2023-12-22T15:37:08;6.90;99.90
9668;DHT22;4872;48.316;10.650;2023-12-22T15:39:35;6.90;99.90
9668;DHT22;4872;48.316;10.650;2023-12-22T15:42:02;6.90;99.90
9668;DHT22;4872;48.316;10.650;2023-12-22T15:44:30;7.00;99.90
9668;DHT22;4872;48.316;10.650;2023-12-22T15:46:57;7.00;99.90
9668;DHT22;4872;48.316;10.650;2023-12-22T15:49:24;7.00;99.90
9668;DHT22;4872;48.316;10.650;2023-12-22T15:51:50;7.00;99.90
9668;DHT22;4872;48.316;10.650;2023-12-22T15:54:21;7.10;99.90
9668;DHT22;4872;48.316;10.650;2023-12-22T15:56:48;7.00;99.90
9668;DHT22;4872;48.316;10.650;2023-12-22T15:59:14;7.00;99.90
9668;DHT22;4872;48.316;10.650;2023-12-22T16:01:45;7.00;99.90
9668;DHT22;4872;48.316;10.650;2023-12-22T16:04:13;7.00;99.90
9668;DHT22;4872;48.316;10.650;2023-12-22T16:06:39;7.00;99.90
9668;DHT22;4872;48.316;10.650;2023-12-22T16:09:06;7.00;99.90
9668;DHT22;4872;48.316;10.650;2023-12-22T16:11:33;7.10;99.90
9668;DHT22;4872;48.316;10.650;2023-12-22T16:14:00;7.00;99.90
9668;DHT22;4872;48.316;10.650;2023-12-22T16:16:26;7.10;99.90
9668;DHT22;4872;48.316;10.650;2023-12-22T16:18:54;7.00;99.90
9668;DHT22;4872;48.316;10.650;2023-12-22T16:21:21;7.10;99.90
9668;DHT22;4872;48.316;10.650;2023-12-22T16:23:48;7.10;99.90
9668;DHT22;4872;48.316;10.650;2023-12-22T16:26:18;7.10;99.90
9668;DHT22;4872;48.316;10.650;2023-12-22T16:28:46;7.10;99.90
9668;DHT22;4872;48.316;10.650;2023-12-22T16:31:13;7.10;99.90
9668;DHT22;4872;48.316;10.650;2023-12-22T16:33:40;7.10;99.90
9668;DHT22;4872;48.316;10.650;2023-12-22T16:36:11;7.10;99.90
9668;DHT22;4872;48.316;10.650;2023-12-22T16:38:38;7.10;99.90
9668;DHT22;4872;48.316;10.650;2023-12-22T16:41:05;7.10;99.90
9668;DHT22;4872;48.316;10.650;2023-12-22T16:43:32;7.10;99.90
9668;DHT22;4872;48.316;10.650;2023-12-22T16:45:59;7.20;99.90
9668;DHT22;4872;48.316;10.650;2023-12-22T16:48:26;7.10;99.90
9668;DHT22;4872;48.316;10.650;2023-12-22T16:50:53;7.20;99.90
9668;DHT22;4872;48.316;10.650;2023-12-22T16:53:22;7.10;99.90
9668;DHT22;4872;48.316;10.650;2023-12-22T16:55:49;7.10;99.90
9668;DHT22;4872;48.316;10.650;2023-12-22T16:58:15;7.10;99.90
9668;DHT22;4872;48.316;10.650;2023-12-22T17:00:42;7.10;99.90
9668;DHT22;4872;48.316;10.650;2023-12-22T17:03:09;7.10;99.90
9668;DHT22;4872;48.316;10.650;2023-12-22T17:05:36;7.10;99.90
9668;DHT22;4872;48.316;10.650;2023-12-22T17:08:06;7.20;99.90
9668;DHT22;4872;48.316;10.650;2023-12-22T17:10:34;7.20;99.90
9668;DHT22;4872;48.316;10.650;2023-12-22T17:13:01;7.10;99.90
9668;DHT22;4872;48.316;10.650;2023-12-22T17:15:28;7.20;99.90
9668;DHT22;4872;48.316;10.650;2023-12-22T17:17:54;7.20;99.90
9668;DHT22;4872;48.316;10.650;2023-12-22T17:20:22;7.20;99.90
9668;DHT22;4872;48.316;10.650;2023-12-22T17:22:48;7.20;99.90
9668;DHT22;4872;48.316;10.650;2023-12-22T17:25:15;7.30;99.90
9668;DHT22;4872;48.316;10.650;2023-12-22T17:27:44;7.40;99.90
9668;DHT22;4872;48.316;10.650;2023-12-22T17:30:12;7.30;99.90
9668;DHT22;4872;48.316;10.650;2023-12-22T17:32:39;7.30;99.90
9668;DHT22;4872;48.316;10.650;2023-12-22T17:35:06;7.30;99.90
9668;DHT22;4872;48.316;10.650;2023-12-22T17:37:33;7.30;99.90
9668;DHT22;4872;48.316;10.650;2023-12-22T17:40:00;7.30;99.90
9668;DHT22;4872;48.316;10.650;2023-12-22T17:42:26;7.30;99.90
9668;DHT22;4872;48.316;10.650;2023-12-22T17:44:55;7.30;99.90
9668;DHT22;4872;48.316;10.650;2023-12-22T17:47:21;7.20;99.90
9668;DHT22;4872;48.316;10.650;2023-12-22T17:49:48;7.30;99.90
9668;DHT22;4872;48.316;10.650;2023-12-22T17:52:15;7.30;99.90
9668;DHT22;4872;48.316;10.650;2023-12-22T17:54:41;7.30;99.90
9668;DHT22;4872;48.316;10.650;2023-12-22T17:57:09;7.30;99.90
9668;DHT22;4872;48.316;10.650;2023-12-22T17:59:38;7.30;99.90
9668;DHT22;4872;48.316;10.650;2023-12-22T18:02:07;7.30;99.90
9668;DHT22;4872;48.316;10.650;2023-12-22T18:04:36;7.40;99.90
9668;DHT22;4872;48.316;10.650;2023-12-22T18:07:03;7.40;99.90
9668;DHT22;4872;48.316;10.650;2023-12-22T18:09:30;7.40;99.90
9668;DHT22;4872;48.316;10.650;2023-12-22T18:11:57;7.40;99.90
9668;DHT22;4872;48.316;10.650;2023-12-22T18:14:24;7.40;99.90
9668;DHT22;4872;48.316;10.650;2023-12-22T18:16:50;7.40;99.90
9668;DHT22;4872;48.316;10.650;2023-12-22T18:19:18;7.40;99.90
9668;DHT22;4872;48.316;10.650;2023-12-22T18:21:45;7.40;99.90
9668;DHT22;4872;48.316;10.650;2023-12-22T18:24:12;7.40;99.90
9668;DHT22;4872;48.316;10.650;2023-12-22T18:26:39;7.40;99.90
9668;DHT22;4872;48.316;10.650;2023-12-22T18:29:05;7.40;99.90
9668;DHT22;4872;48.316;10.650;2023-12-22T18:31:32;7.40;99.90
9668;DHT22;4872;48.316;10.650;2023-12-22T18:34:01;7.40;99.90
9668;DHT22;4872;48.316;10.650;2023-12-22T18:36:30;7.30;99.90
9668;DHT22;4872;48.316;10.650;2023-12-22T18:38:57;7.40;99.90
9668;DHT22;4872;48.316;10.650;2023-12-22T18:41:24;7.40;99.90
9668;DHT22;4872;48.316;10.650;2023-12-22T18:43:51;7.50;99.90
9668;DHT22;4872;48.316;10.650;2023-12-22T18:46:18;7.40;99.90
9668;DHT22;4872;48.316;10.650;2023-12-22T18:48:44;7.40;99.90
9668;DHT22;4872;48.316;10.650;2023-12-22T18:51:14;7.40;99.90
9668;DHT22;4872;48.316;10.650;2023-12-22T18:53:44;7.40;99.90
9668;DHT22;4872;48.316;10.650;2023-12-22T18:56:11;7.40;99.90
9668;DHT22;4872;48.316;10.650;2023-12-22T18:58:39;7.40;99.90
9668;DHT22;4872;48.316;10.650;2023-12-22T19:01:06;7.50;99.90
9668;DHT22;4872;48.316;10.650;2023-12-22T19:03:33;7.40;99.90
9668;DHT22;4872;48.316;10.650;2023-12-22T19:06:00;7.40;99.90
9668;DHT22;4872;48.316;10.650;2023-12-22T19:08:27;7.30;99.90
9668;DHT22;4872;48.316;10.650;2023-12-22T19:10:55;7.30;99.90
9668;DHT22;4872;48.316;10.650;2023-12-22T19:13:22;7.20;99.90
9668;DHT22;4872;48.316;10.650;2023-12-22T19:15:49;7.20;99.90
9668;DHT22;4872;48.316;10.650;2023-12-22T19:18:16;7.20;99.90
9668;DHT22;4872;48.316;10.650;2023-12-22T19:20:42;7.20;99.90
9668;DHT22;4872;48.316;10.650;2023-12-22T19:23:09;7.20;99.90
9668;DHT22;4872;48.316;10.650;2023-12-22T19:25:36;7.30;99.90
9668;DHT22;4872;48.316;10.650;2023-12-22T19:28:04;7.30;99.90
9668;DHT22;4872;48.316;10.650;2023-12-22T19:30:32;7.30;99.90
9668;DHT22;4872;48.316;10.650;2023-12-22T19:32:59;7.40;99.90
9668;DHT22;4872;48.316;10.650;2023-12-22T19:35:27;7.40;99.90
9668;DHT22;4872;48.316;10.650;2023-12-22T19:37:54;7.40;99.90
9668;DHT22;4872;48.316;10.650;2023-12-22T19:40:20;7.50;99.90
9668;DHT22;4872;48.316;10.650;2023-12-22T19:42:47;7.50;99.90
9668;DHT22;4872;48.316;10.650;2023-12-22T19:45:15;7.50;99.90
9668;DHT22;4872;48.316;10.650;2023-12-22T19:47:42;7.50;99.90
9668;DHT22;4872;48.316;10.650;2023-12-22T19:50:09;7.50;99.90
9668;DHT22;4872;48.316;10.650;2023-12-22T19:52:36;7.60;99.90
9668;DHT22;4872;48.316;10.650;2023-12-22T19:55:03;7.60;99.90
9668;DHT22;4872;48.316;10.650;2023-12-22T19:57:31;7.60;99.90
9668;DHT22;4872;48.316;10.650;2023-12-22T19:59:58;7.60;99.90
9668;DHT22;4872;48.316;10.650;2023-12-22T20:02:26;7.50;99.90
9668;DHT22;4872;48.316;10.650;2023-12-22T20:04:53;7.70;99.90
9668;DHT22;4872;48.316;10.650;2023-12-22T20:07:19;7.60;99.90
9668;DHT22;4872;48.316;10.650;2023-12-22T20:09:46;7.60;99.90
9668;DHT22;4872;48.316;10.650;2023-12-22T20:12:13;7.60;99.90
9668;DHT22;4872;48.316;10.650;2023-12-22T20:14:40;7.50;99.90
9668;DHT22;4872;48.316;10.650;2023-12-22T20:17:07;7.50;99.90
9668;DHT22;4872;48.316;10.650;2023-12-22T20:19:35;7.50;99.90
9668;DHT22;4872;48.316;10.650;2023-12-22T20:22:03;7.40;99.90
9668;DHT22;4872;48.316;10.650;2023-12-22T20:24:30;7.40;99.90
9668;DHT22;4872;48.316;10.650;2023-12-22T20:26:57;7.40;99.90
9668;DHT22;4872;48.316;10.650;2023-12-22T20:29:24;7.40;99.90
9668;DHT22;4872;48.316;10.650;2023-12-22T20:31:51;7.30;99.90
9668;DHT22;4872;48.316;10.650;2023-12-22T20:34:18;7.20;99.90
9668;DHT22;4872;48.316;10.650;2023-12-22T20:36:46;7.30;99.90
9668;DHT22;4872;48.316;10.650;2023-12-22T20:39:13;7.30;99.90
9668;DHT22;4872;48.316;10.650;2023-12-22T20:41:40;7.30;99.90
9668;DHT22;4872;48.316;10.650;2023-12-22T20:44:07;7.20;99.90
9668;DHT22;4872;48.316;10.650;2023-12-22T20:46:34;7.20;99.90
9668;DHT22;4872;48.316;10.650;2023-12-22T20:49:01;7.20;99.90
9668;DHT22;4872;48.316;10.650;2023-12-22T20:51:29;7.20;99.90
9668;DHT22;4872;48.316;10.650;2023-12-22T20:53:59;7.10;99.90
9668;DHT22;4872;48.316;10.650;2023-12-22T20:56:25;7.20;99.90
9668;DHT22;4872;48.316;10.650;2023-12-22T20:58:53;7.10;99.90
9668;DHT22;4872;48.316;10.650;2023-12-22T21:01:21;7.10;99.90
9668;DHT22;4872;48.316;10.650;2023-12-22T21:03:49;7.10;99.90